createdAt,value
2019-01-24T00:01:08.246Z,-3.10
2019-01-24T00:02:15.367Z,-3.10
2019-01-24T00:03:22.205Z,-3.10
2019-01-24T00:04:29.238Z,-3.10
2019-01-24T00:05:36.266Z,-3.10
2019-01-24T00:06:43.181Z,-3.10
2019-01-24T00:07:50.027Z,-3.10
2019-01-24T00:08:57.089Z,-3.20
2019-01-24T00:10:04.172Z,-3.20
2019-01-24T00:11:11.572Z,-3.20
2019-01-24T00:12:18.458Z,-3.20
2019-01-24T00:13:25.306Z,-3.10
2019-01-24T00:14:32.018Z,-3.20
2019-01-24T00:15:39.019Z,-3.20
2019-01-24T00:16:45.830Z,-3.10
2019-01-24T00:17:52.526Z,-3.00
2019-01-24T00:18:59.247Z,-3.10
2019-01-24T00:20:07.386Z,-3.10
2019-01-24T00:21:14.342Z,-3.10
2019-01-24T00:22:21.083Z,-3.10
2019-01-24T00:23:28.160Z,-3.10
2019-01-24T00:24:34.990Z,-3.10
2019-01-24T00:25:42.148Z,-3.20
2019-01-24T00:26:48.856Z,-3.10
2019-01-24T00:27:55.852Z,-3.20
2019-01-24T00:29:02.549Z,-3.20
2019-01-24T00:30:10.811Z,-3.20
2019-01-24T00:31:17.486Z,-3.20
2019-01-24T00:32:25.078Z,-3.20
2019-01-24T00:33:31.894Z,-3.20
2019-01-24T00:34:38.565Z,-3.20
2019-01-24T00:35:45.258Z,-3.20
2019-01-24T00:36:51.953Z,-3.30
2019-01-24T00:37:59.048Z,-3.20
2019-01-24T00:39:09.424Z,-3.20
2019-01-24T00:40:19.137Z,-3.20
2019-01-24T00:41:26.659Z,-3.20
2019-01-24T00:42:33.316Z,-3.10
2019-01-24T00:43:40.106Z,-3.20
2019-01-24T00:44:47.366Z,-3.20
2019-01-24T00:45:54.330Z,-3.20
2019-01-24T00:47:01.069Z,-3.20
2019-01-24T00:48:08.199Z,-3.20
2019-01-24T00:49:15.003Z,-3.20
2019-01-24T00:50:21.718Z,-3.30
2019-01-24T00:51:28.547Z,-3.30
2019-01-24T00:52:35.265Z,-3.30
2019-01-24T00:53:41.980Z,-3.30
2019-01-24T00:54:48.657Z,-3.30
2019-01-24T00:55:55.671Z,-3.20
2019-01-24T00:57:02.715Z,-3.20
2019-01-24T00:58:09.379Z,-3.20
2019-01-24T00:59:16.164Z,-3.20
2019-01-24T01:00:26.403Z,-3.10
2019-01-24T01:01:33.146Z,-3.10
2019-01-24T01:02:40.501Z,-3.10
2019-01-24T01:03:47.205Z,-3.20
2019-01-24T01:04:53.953Z,-3.20
2019-01-24T01:06:01.050Z,-3.10
2019-01-24T01:07:07.922Z,-3.20
2019-01-24T01:08:15.405Z,-3.20
2019-01-24T01:09:22.349Z,-3.10
2019-01-24T01:10:29.121Z,-3.10
2019-01-24T01:11:36.317Z,-3.10
2019-01-24T01:12:43.273Z,-3.10
2019-01-24T01:13:49.998Z,-3.20
2019-01-24T01:14:56.791Z,-3.20
2019-01-24T01:16:03.497Z,-3.20
2019-01-24T01:17:10.570Z,-3.10
2019-01-24T01:18:17.249Z,-3.10
2019-01-24T01:19:23.964Z,-3.10
2019-01-24T01:20:30.667Z,-3.10
2019-01-24T01:21:37.781Z,-3.10
2019-01-24T01:22:44.500Z,-3.10
2019-01-24T01:23:51.213Z,-3.20
2019-01-24T01:24:58.021Z,-3.10
2019-01-24T01:26:04.896Z,-3.10
2019-01-24T01:27:11.937Z,-3.20
2019-01-24T01:28:18.593Z,-3.20
2019-01-24T01:29:25.370Z,-3.20
2019-01-24T01:30:32.235Z,-3.20
2019-01-24T01:31:38.969Z,-3.30
2019-01-24T01:32:46.211Z,-3.30
2019-01-24T01:33:53.429Z,-3.30
2019-01-24T01:35:00.430Z,-3.30
2019-01-24T01:36:07.469Z,-3.30
2019-01-24T01:37:14.224Z,-3.30
2019-01-24T01:38:20.972Z,-3.30
2019-01-24T01:39:27.922Z,-3.30
2019-01-24T01:40:34.897Z,-3.30
2019-01-24T01:41:41.771Z,-3.30
2019-01-24T01:42:49.159Z,-3.30
2019-01-24T01:43:56.132Z,-3.30
2019-01-24T01:45:03.113Z,-3.30
2019-01-24T01:46:10.294Z,-3.20
2019-01-24T01:47:17.405Z,-3.20
2019-01-24T01:48:24.096Z,-3.20
2019-01-24T01:49:31.117Z,-3.20
2019-01-24T01:50:37.830Z,-3.20
2019-01-24T01:51:44.896Z,-3.20
2019-01-24T01:52:51.743Z,-3.20
2019-01-24T01:53:58.799Z,-3.20
2019-01-24T01:55:06.061Z,-3.20
2019-01-24T01:56:13.128Z,-3.30
2019-01-24T01:57:20.481Z,-3.20
2019-01-24T01:58:27.342Z,-3.30
2019-01-24T01:59:34.233Z,-3.30
2019-01-24T02:00:41.164Z,-3.20
2019-01-24T02:01:48.230Z,-3.30
2019-01-24T02:02:58.553Z,-3.30
2019-01-24T02:04:05.966Z,-3.30
2019-01-24T02:05:13.327Z,-3.20
2019-01-24T02:06:20.020Z,-3.20
2019-01-24T02:07:26.738Z,-3.20
2019-01-24T02:08:33.634Z,-3.30
2019-01-24T02:09:42.306Z,-3.30
2019-01-24T02:10:49.830Z,-3.30
2019-01-24T02:11:56.582Z,-3.20
2019-01-24T02:13:03.282Z,-3.20
2019-01-24T02:14:10.599Z,-3.30
2019-01-24T02:15:18.110Z,-3.20
2019-01-24T02:16:24.800Z,-3.20
2019-01-24T02:17:31.526Z,-3.20
2019-01-24T02:18:38.362Z,-3.20
2019-01-24T02:19:45.131Z,-3.20
2019-01-24T02:20:53.261Z,-3.20
2019-01-24T02:21:59.921Z,-3.20
2019-01-24T02:23:07.249Z,-3.20
2019-01-24T02:24:14.212Z,-3.20
2019-01-24T02:25:21.385Z,-3.20
2019-01-24T02:26:29.927Z,-3.20
2019-01-24T02:27:36.745Z,-3.20
2019-01-24T02:28:43.860Z,-3.20
2019-01-24T02:29:51.023Z,-3.20
2019-01-24T02:30:57.719Z,-3.20
2019-01-24T02:32:04.717Z,-3.20
2019-01-24T02:33:11.779Z,-3.20
2019-01-24T02:34:18.741Z,-3.20
2019-01-24T02:35:25.535Z,-3.20
2019-01-24T02:36:32.450Z,-3.20
2019-01-24T02:37:39.485Z,-3.20
2019-01-24T02:38:46.323Z,-3.30
2019-01-24T02:39:53.732Z,-3.20
2019-01-24T02:41:00.395Z,-3.20
2019-01-24T02:42:07.137Z,-3.20
2019-01-24T02:43:13.922Z,-3.20
2019-01-24T02:44:20.603Z,-3.20
2019-01-24T02:45:27.996Z,-3.20
2019-01-24T02:46:34.892Z,-3.10
2019-01-24T02:47:41.592Z,-3.20
2019-01-24T02:48:48.849Z,-3.20
2019-01-24T02:49:55.892Z,-3.20
2019-01-24T02:51:02.992Z,-3.20
2019-01-24T02:52:09.972Z,-3.10
2019-01-24T02:53:16.722Z,-3.00
2019-01-24T02:54:23.412Z,-3.00
2019-01-24T02:55:32.048Z,-3.10
2019-01-24T02:56:38.882Z,-3.00
2019-01-24T02:57:46.126Z,-3.10
2019-01-24T02:58:52.810Z,-3.10
2019-01-24T02:59:59.536Z,-3.10
2019-01-24T03:01:06.521Z,-3.20
2019-01-24T03:02:13.288Z,-3.20
2019-01-24T03:03:20.061Z,-3.20
2019-01-24T03:04:26.725Z,-3.20
2019-01-24T03:05:33.397Z,-3.20
2019-01-24T03:06:40.434Z,-3.10
2019-01-24T03:07:48.139Z,-3.20
2019-01-24T03:08:55.281Z,-3.20
2019-01-24T03:10:01.937Z,-3.20
2019-01-24T03:11:09.227Z,-3.10
2019-01-24T03:12:15.914Z,-3.10
2019-01-24T03:13:23.461Z,-3.10
2019-01-24T03:14:30.297Z,-3.20
2019-01-24T03:15:37.002Z,-3.20
2019-01-24T03:16:44.059Z,-3.20
2019-01-24T03:17:51.254Z,-3.10
2019-01-24T03:18:58.286Z,-3.10
2019-01-24T03:20:06.099Z,-3.20
2019-01-24T03:21:13.243Z,-3.20
2019-01-24T03:22:20.774Z,-3.20
2019-01-24T03:23:27.528Z,-3.20
2019-01-24T03:24:34.259Z,-3.20
2019-01-24T03:25:42.480Z,-3.20
2019-01-24T03:26:49.211Z,-3.20
2019-01-24T03:27:56.237Z,-3.20
2019-01-24T03:29:02.953Z,-3.20
2019-01-24T03:30:14.003Z,-3.20
2019-01-24T03:31:21.274Z,-3.20
2019-01-24T03:32:28.763Z,-3.30
2019-01-24T03:33:36.133Z,-3.20
2019-01-24T03:34:43.371Z,-3.20
2019-01-24T03:35:50.638Z,-3.20
2019-01-24T03:36:58.093Z,-3.20
2019-01-24T03:38:05.307Z,-3.20
2019-01-24T03:39:12.281Z,-3.10
2019-01-24T03:40:19.229Z,-3.20
2019-01-24T03:41:27.249Z,-3.20
2019-01-24T03:42:33.958Z,-3.10
2019-01-24T03:43:40.970Z,-3.20
2019-01-24T03:44:48.077Z,-3.20
2019-01-24T03:45:54.788Z,-3.20
2019-01-24T03:47:01.455Z,-3.20
2019-01-24T03:48:08.584Z,-3.20
2019-01-24T03:49:15.305Z,-3.20
2019-01-24T03:50:23.493Z,-3.20
2019-01-24T03:51:30.197Z,-3.20
2019-01-24T03:52:37.187Z,-3.10
2019-01-24T03:53:44.754Z,-3.20
2019-01-24T03:54:52.117Z,-3.20
2019-01-24T03:55:58.817Z,-3.20
2019-01-24T03:57:05.605Z,-3.20
2019-01-24T03:58:12.341Z,-3.10
2019-01-24T03:59:19.911Z,-3.20
2019-01-24T04:00:27.514Z,-3.10
2019-01-24T04:01:34.218Z,-3.10
2019-01-24T04:02:41.202Z,-3.10
2019-01-24T04:03:48.420Z,-3.10
2019-01-24T04:04:55.217Z,-3.10
2019-01-24T04:06:02.153Z,-3.10
2019-01-24T04:07:09.193Z,-3.10
2019-01-24T04:08:16.018Z,-3.20
2019-01-24T04:09:23.045Z,-3.10
2019-01-24T04:10:30.202Z,-3.10
2019-01-24T04:11:37.425Z,-3.10
2019-01-24T04:12:44.179Z,-3.20
2019-01-24T04:13:50.852Z,-3.20
2019-01-24T04:14:57.550Z,-3.20
2019-01-24T04:16:04.349Z,-3.10
2019-01-24T04:17:11.100Z,-3.10
2019-01-24T04:18:29.671Z,-3.20
2019-01-24T04:19:36.340Z,-3.20
2019-01-24T04:20:43.073Z,-3.20
2019-01-24T04:21:50.127Z,-3.20
2019-01-24T04:22:57.156Z,-3.20
2019-01-24T04:24:03.858Z,-3.20
2019-01-24T04:25:11.431Z,-3.20
2019-01-24T04:26:18.260Z,-3.20
2019-01-24T04:27:24.929Z,-3.20
2019-01-24T04:28:34.085Z,-3.20
2019-01-24T04:29:41.298Z,-3.10
2019-01-24T04:30:48.361Z,-3.20
2019-01-24T04:31:55.356Z,-3.20
2019-01-24T04:33:02.023Z,-3.10
2019-01-24T04:34:08.751Z,-3.20
2019-01-24T04:35:19.898Z,-3.10
2019-01-24T04:36:24.980Z,-3.20
2019-01-24T04:37:32.015Z,-3.10
2019-01-24T04:38:39.112Z,-3.20
2019-01-24T04:39:45.774Z,-3.20
2019-01-24T04:40:52.607Z,-3.10
2019-01-24T04:41:59.718Z,-3.20
2019-01-24T04:43:06.553Z,-3.20
2019-01-24T04:44:13.730Z,-3.20
2019-01-24T04:45:20.506Z,-3.20
2019-01-24T04:46:28.304Z,-3.10
2019-01-24T04:47:35.802Z,-3.10
2019-01-24T04:48:42.556Z,-3.10
2019-01-24T04:49:49.526Z,-3.10
2019-01-24T04:50:56.591Z,-3.10
2019-01-24T04:52:03.595Z,-3.10
2019-01-24T04:53:10.411Z,-3.10
2019-01-24T04:54:17.165Z,-3.10
2019-01-24T04:55:23.829Z,-3.10
2019-01-24T04:56:30.510Z,-3.10
2019-01-24T04:57:37.243Z,-3.20
2019-01-24T04:58:44.061Z,-3.20
2019-01-24T04:59:50.770Z,-3.30
2019-01-24T05:00:57.851Z,-3.30
2019-01-24T05:02:04.655Z,-3.30
2019-01-24T05:03:11.746Z,-3.30
2019-01-24T05:04:18.783Z,-3.40
2019-01-24T05:05:27.987Z,-3.40
2019-01-24T05:06:34.272Z,-3.40
2019-01-24T05:07:40.963Z,-3.40
2019-01-24T05:08:47.673Z,-3.40
2019-01-24T05:09:54.387Z,-3.40
2019-01-24T05:11:01.269Z,-3.30
2019-01-24T05:12:07.941Z,-3.30
2019-01-24T05:13:14.783Z,-3.30
2019-01-24T05:14:22.212Z,-3.30
2019-01-24T05:15:29.014Z,-3.30
2019-01-24T05:16:35.735Z,-3.40
2019-01-24T05:17:42.446Z,-3.40
2019-01-24T05:18:49.408Z,-3.30
2019-01-24T05:19:56.064Z,-3.30
2019-01-24T05:21:03.003Z,-3.30
2019-01-24T05:22:10.013Z,-3.30
2019-01-24T05:23:16.809Z,-3.30
2019-01-24T05:24:23.992Z,-3.30
2019-01-24T05:25:30.765Z,-3.30
2019-01-24T05:26:37.778Z,-3.30
2019-01-24T05:27:44.554Z,-3.30
2019-01-24T05:28:51.198Z,-3.40
2019-01-24T05:29:57.924Z,-3.40
2019-01-24T05:31:05.084Z,-3.40
2019-01-24T05:32:12.301Z,-3.30
2019-01-24T05:33:19.067Z,-3.30
2019-01-24T05:34:26.877Z,-3.30
2019-01-24T05:35:34.857Z,-3.30
2019-01-24T05:36:42.567Z,-3.40
2019-01-24T05:37:49.294Z,-3.40
2019-01-24T05:38:56.253Z,-3.40
2019-01-24T05:40:03.369Z,-3.40
2019-01-24T05:41:10.419Z,-3.40
2019-01-24T05:42:17.161Z,-3.30
2019-01-24T05:43:24.051Z,-3.30
2019-01-24T05:44:31.032Z,-3.30
2019-01-24T05:45:38.125Z,-3.30
2019-01-24T05:46:44.800Z,-3.20
2019-01-24T05:47:51.482Z,-3.20
2019-01-24T05:48:58.243Z,-3.20
2019-01-24T05:50:06.317Z,-3.30
2019-01-24T05:51:13.066Z,-3.20
2019-01-24T05:52:20.182Z,-3.20
2019-01-24T05:53:27.219Z,-3.30
2019-01-24T05:54:33.942Z,-3.30
2019-01-24T05:55:40.767Z,-3.30
2019-01-24T05:56:47.474Z,-3.30
2019-01-24T05:57:54.195Z,-3.40
2019-01-24T05:59:01.221Z,-3.30
2019-01-24T06:00:11.510Z,-3.30
2019-01-24T06:01:18.518Z,-3.40
2019-01-24T06:02:25.505Z,-3.40
2019-01-24T06:03:32.481Z,-3.30
2019-01-24T06:04:39.295Z,-3.30
2019-01-24T06:05:46.397Z,-3.40
2019-01-24T06:06:53.207Z,-3.40
2019-01-24T06:08:00.359Z,-3.40
2019-01-24T06:09:09.301Z,-3.30
2019-01-24T06:10:16.424Z,-3.30
2019-01-24T06:11:23.440Z,-3.30
2019-01-24T06:12:31.411Z,-3.30
2019-01-24T06:13:38.239Z,-3.40
2019-01-24T06:14:45.274Z,-3.30
2019-01-24T06:15:52.021Z,-3.30
2019-01-24T06:16:58.717Z,-3.30
2019-01-24T06:18:06.276Z,-3.30
2019-01-24T06:19:13.275Z,-3.30
2019-01-24T06:20:20.193Z,-3.30
2019-01-24T06:21:26.926Z,-3.30
2019-01-24T06:22:34.052Z,-3.20
2019-01-24T06:23:41.103Z,-3.30
2019-01-24T06:24:48.238Z,-3.30
2019-01-24T06:25:55.147Z,-3.30
2019-01-24T06:27:01.883Z,-3.20
2019-01-24T06:28:08.845Z,-3.30
2019-01-24T06:29:15.931Z,-3.30
2019-01-24T06:30:23.122Z,-3.30
2019-01-24T06:31:30.006Z,-3.20
2019-01-24T06:32:37.095Z,-3.20
2019-01-24T06:33:43.805Z,-3.20
2019-01-24T06:34:51.000Z,-3.20
2019-01-24T06:35:57.776Z,-3.20
2019-01-24T06:37:04.560Z,-3.20
2019-01-24T06:38:11.607Z,-3.20
2019-01-24T06:39:18.291Z,-3.20
2019-01-24T06:40:25.019Z,-3.20
2019-01-24T06:41:31.717Z,-3.30
2019-01-24T06:42:38.647Z,-3.40
2019-01-24T06:43:45.666Z,-3.40
2019-01-24T06:44:52.633Z,-3.40
2019-01-24T06:45:59.327Z,-3.50
2019-01-24T06:47:06.273Z,-3.50
2019-01-24T06:48:13.352Z,-3.50
2019-01-24T06:49:20.159Z,-3.50
2019-01-24T06:50:26.877Z,-3.50
2019-01-24T06:51:34.007Z,-3.40
2019-01-24T06:52:41.157Z,-3.40
2019-01-24T06:53:48.333Z,-3.40
2019-01-24T06:54:55.068Z,-3.50
2019-01-24T06:56:02.086Z,-3.50
2019-01-24T06:57:08.761Z,-3.50
2019-01-24T06:58:15.456Z,-3.50
2019-01-24T06:59:22.188Z,-3.50
2019-01-24T07:00:29.266Z,-3.50
2019-01-24T07:01:36.417Z,-3.60
2019-01-24T07:02:43.634Z,-3.60
2019-01-24T07:03:50.387Z,-3.60
2019-01-24T07:04:57.076Z,-3.50
2019-01-24T07:06:04.041Z,-3.50
2019-01-24T07:07:10.743Z,-3.50
2019-01-24T07:08:18.100Z,-3.50
2019-01-24T07:09:24.820Z,-3.50
2019-01-24T07:10:31.817Z,-3.50
2019-01-24T07:11:38.528Z,-3.40
2019-01-24T07:12:45.674Z,-3.40
2019-01-24T07:13:52.369Z,-3.40
2019-01-24T07:14:59.079Z,-3.40
2019-01-24T07:16:06.107Z,-3.40
2019-01-24T07:17:12.832Z,-3.50
2019-01-24T07:18:19.558Z,-3.50
2019-01-24T07:19:26.681Z,-3.50
2019-01-24T07:20:33.374Z,-3.50
2019-01-24T07:21:40.603Z,-3.50
2019-01-24T07:22:47.372Z,-3.50
2019-01-24T07:23:54.064Z,-3.40
2019-01-24T07:25:01.086Z,-3.40
2019-01-24T07:26:07.759Z,-3.40
2019-01-24T07:27:14.885Z,-3.40
2019-01-24T07:28:21.892Z,-3.40
2019-01-24T07:29:28.732Z,-3.40
2019-01-24T07:30:35.493Z,-3.50
2019-01-24T07:31:42.433Z,-3.40
2019-01-24T07:32:49.647Z,-3.30
2019-01-24T07:33:57.010Z,-3.30
2019-01-24T07:35:03.973Z,-3.30
2019-01-24T07:36:11.055Z,-3.20
2019-01-24T07:37:17.770Z,-3.30
2019-01-24T07:38:24.485Z,-3.30
2019-01-24T07:39:31.596Z,-3.30
2019-01-24T07:40:38.284Z,-3.30
2019-01-24T07:41:45.007Z,-3.30
2019-01-24T07:42:51.748Z,-3.30
2019-01-24T07:43:58.477Z,-3.20
2019-01-24T07:45:08.241Z,-3.20
2019-01-24T07:46:15.305Z,-3.20
2019-01-24T07:47:22.338Z,-3.30
2019-01-24T07:48:29.527Z,-3.30
2019-01-24T07:49:36.599Z,-3.40
2019-01-24T07:50:43.328Z,-3.30
2019-01-24T07:51:49.980Z,-3.40
2019-01-24T07:52:56.749Z,-3.30
2019-01-24T07:54:03.477Z,-3.30
2019-01-24T07:55:11.228Z,-3.30
2019-01-24T07:56:17.916Z,-3.30
2019-01-24T07:57:24.598Z,-3.30
2019-01-24T07:58:31.292Z,-3.30
2019-01-24T07:59:38.500Z,-3.30
2019-01-24T08:00:45.254Z,-3.30
2019-01-24T08:01:52.689Z,-3.30
2019-01-24T08:02:59.357Z,-3.30
2019-01-24T08:04:06.265Z,-3.20
2019-01-24T08:05:14.289Z,-3.30
2019-01-24T08:06:20.960Z,-3.20
2019-01-24T08:07:28.109Z,-3.20
2019-01-24T08:08:35.231Z,-3.30
2019-01-24T08:09:42.278Z,-3.40
2019-01-24T08:10:49.078Z,-3.40
2019-01-24T08:11:56.245Z,-3.40
2019-01-24T08:13:03.410Z,-3.40
2019-01-24T08:14:10.379Z,-3.40
2019-01-24T08:15:19.276Z,-3.40
2019-01-24T08:16:27.153Z,-3.40
2019-01-24T08:17:33.893Z,-3.30
2019-01-24T08:18:40.969Z,-3.40
2019-01-24T08:19:47.665Z,-3.40
2019-01-24T08:20:54.835Z,-3.30
2019-01-24T08:22:01.733Z,-3.30
2019-01-24T08:23:08.757Z,-3.30
2019-01-24T08:24:15.533Z,-3.30
2019-01-24T08:25:22.238Z,-3.30
2019-01-24T08:26:28.970Z,-3.30
2019-01-24T08:27:35.891Z,-3.20
2019-01-24T08:28:42.909Z,-3.20
2019-01-24T08:29:49.599Z,-3.30
2019-01-24T08:30:56.645Z,-3.20
2019-01-24T08:32:03.439Z,-3.20
2019-01-24T08:33:10.207Z,-3.30
2019-01-24T08:34:17.271Z,-3.30
2019-01-24T08:35:24.548Z,-3.30
2019-01-24T08:36:31.312Z,-3.30
2019-01-24T08:37:38.353Z,-3.30
2019-01-24T08:38:45.503Z,-3.30
2019-01-24T08:39:52.258Z,-3.30
2019-01-24T08:40:58.938Z,-3.30
2019-01-24T08:42:05.795Z,-3.20
2019-01-24T08:43:12.797Z,-3.20
2019-01-24T08:44:19.709Z,-3.20
2019-01-24T08:45:26.732Z,-3.10
2019-01-24T08:46:34.108Z,-3.10
2019-01-24T08:47:41.349Z,-3.10
2019-01-24T08:48:48.772Z,-3.10
2019-01-24T08:49:55.610Z,-3.20
2019-01-24T08:51:02.280Z,-3.30
2019-01-24T08:52:09.423Z,-3.30
2019-01-24T08:53:16.102Z,-3.30
2019-01-24T08:54:23.180Z,-3.30
2019-01-24T08:55:44.416Z,-3.30
2019-01-24T08:56:51.192Z,-3.20
2019-01-24T08:57:57.873Z,-3.20
2019-01-24T08:59:04.573Z,-3.20
2019-01-24T09:00:14.959Z,-3.20
2019-01-24T09:01:21.647Z,-3.10
2019-01-24T09:02:28.790Z,-3.20
2019-01-24T09:03:35.481Z,-3.30
2019-01-24T09:04:42.236Z,-3.30
2019-01-24T09:05:49.233Z,-3.20
2019-01-24T09:06:56.567Z,-3.20
2019-01-24T09:08:03.384Z,-3.10
2019-01-24T09:09:11.203Z,-3.10
2019-01-24T09:10:22.509Z,-3.10
2019-01-24T09:11:30.011Z,-3.10
2019-01-24T09:12:36.898Z,-3.10
2019-01-24T09:13:43.988Z,-3.10
2019-01-24T09:14:50.694Z,-3.10
2019-01-24T09:15:57.648Z,-3.10
2019-01-24T09:17:05.103Z,-3.20
2019-01-24T09:18:12.057Z,-3.20
2019-01-24T09:19:19.170Z,-3.20
2019-01-24T09:20:25.890Z,-3.30
2019-01-24T09:21:32.567Z,-3.30
2019-01-24T09:22:40.065Z,-3.30
2019-01-24T09:23:46.781Z,-3.20
2019-01-24T09:24:53.466Z,-3.20
2019-01-24T09:26:00.199Z,-3.10
2019-01-24T09:27:06.878Z,-3.20
2019-01-24T09:28:14.966Z,-3.20
2019-01-24T09:29:22.294Z,-3.20
2019-01-24T09:30:29.873Z,-3.30
2019-01-24T09:31:36.902Z,-3.40
2019-01-24T09:32:43.722Z,-3.40
2019-01-24T09:33:50.781Z,-3.40
2019-01-24T09:34:57.441Z,-3.30
2019-01-24T09:36:04.796Z,-3.30
2019-01-24T09:37:11.497Z,-3.30
2019-01-24T09:38:18.202Z,-3.20
2019-01-24T09:39:25.281Z,-3.30
2019-01-24T09:40:32.288Z,-3.30
2019-01-24T09:41:39.269Z,-3.30
2019-01-24T09:42:46.002Z,-3.40
2019-01-24T09:43:53.414Z,-3.40
2019-01-24T09:45:00.192Z,-3.30
2019-01-24T09:46:07.477Z,-3.40
2019-01-24T09:47:14.548Z,-3.30
2019-01-24T09:48:21.338Z,-3.20
2019-01-24T09:49:28.411Z,-3.20
2019-01-24T09:50:35.375Z,-3.20
2019-01-24T09:51:42.661Z,-3.10
2019-01-24T09:52:49.460Z,-3.10
2019-01-24T09:53:56.232Z,-3.00
2019-01-24T09:55:03.435Z,-2.90
2019-01-24T09:56:10.395Z,-2.90
2019-01-24T09:57:17.275Z,-2.90
2019-01-24T09:58:23.916Z,-2.90
2019-01-24T09:59:30.901Z,-3.00
2019-01-24T10:00:39.036Z,-3.10
2019-01-24T10:01:46.185Z,-3.10
2019-01-24T10:02:53.261Z,-3.20
2019-01-24T10:04:00.064Z,-3.30
2019-01-24T10:05:07.915Z,-3.30
2019-01-24T10:06:14.662Z,-3.30
2019-01-24T10:07:21.777Z,-3.30
2019-01-24T10:08:28.537Z,-3.30
2019-01-24T10:09:35.531Z,-3.30
2019-01-24T10:10:42.649Z,-3.20
2019-01-24T10:11:49.498Z,-3.20
2019-01-24T10:12:57.879Z,-3.10
2019-01-24T10:14:05.049Z,-3.10
2019-01-24T10:15:13.096Z,-3.10
2019-01-24T10:16:20.256Z,-3.00
2019-01-24T10:17:27.408Z,-3.00
2019-01-24T10:18:34.153Z,-3.10
2019-01-24T10:19:41.295Z,-3.00
2019-01-24T10:20:49.012Z,-3.00
2019-01-24T10:21:55.792Z,-3.10
2019-01-24T10:23:02.531Z,-3.10
2019-01-24T10:24:09.519Z,-3.00
2019-01-24T10:25:23.085Z,-3.10
2019-01-24T10:26:30.019Z,-3.00
2019-01-24T10:27:36.793Z,-3.10
2019-01-24T10:28:43.876Z,-3.10
2019-01-24T10:29:50.928Z,-3.10
2019-01-24T10:30:57.640Z,-3.10
2019-01-24T10:32:04.306Z,-3.20
2019-01-24T10:33:11.024Z,-3.20
2019-01-24T10:34:18.427Z,-3.20
2019-01-24T10:35:25.385Z,-3.20
2019-01-24T10:36:32.130Z,-3.20
2019-01-24T10:37:38.841Z,-3.20
2019-01-24T10:38:45.531Z,-3.20
2019-01-24T10:39:52.601Z,-3.20
2019-01-24T10:40:59.941Z,-3.30
2019-01-24T10:42:07.124Z,-3.30
2019-01-24T10:43:14.207Z,-3.30
2019-01-24T10:44:21.381Z,-3.30
2019-01-24T10:45:28.182Z,-3.30
2019-01-24T10:46:35.161Z,-3.20
2019-01-24T10:47:42.293Z,-3.20
2019-01-24T10:48:49.279Z,-3.10
2019-01-24T10:49:55.970Z,-3.10
2019-01-24T10:51:02.661Z,-3.10
2019-01-24T10:52:09.707Z,-3.10
2019-01-24T10:53:16.783Z,-3.00
2019-01-24T10:54:23.881Z,-3.00
2019-01-24T10:55:31.901Z,-2.90
2019-01-24T10:56:39.112Z,-2.80
2019-01-24T10:57:46.313Z,-2.70
2019-01-24T10:58:53.284Z,-2.70
2019-01-24T10:59:59.955Z,-2.70
2019-01-24T11:01:07.386Z,-2.70
2019-01-24T11:02:14.190Z,-2.80
2019-01-24T11:03:21.738Z,-2.70
2019-01-24T11:04:28.405Z,-2.80
2019-01-24T11:05:35.410Z,-2.70
2019-01-24T11:06:42.529Z,-2.70
2019-01-24T11:07:49.477Z,-2.60
2019-01-24T11:08:56.558Z,-2.60
2019-01-24T11:10:03.556Z,-2.60
2019-01-24T11:11:10.631Z,-2.70
2019-01-24T11:12:17.704Z,-2.70
2019-01-24T11:13:24.808Z,-2.70
2019-01-24T11:14:31.876Z,-2.60
2019-01-24T11:15:38.964Z,-2.60
2019-01-24T11:16:46.133Z,-2.70
2019-01-24T11:17:53.085Z,-2.70
2019-01-24T11:18:59.793Z,-2.70
2019-01-24T11:20:09.543Z,-2.80
2019-01-24T11:21:16.664Z,-2.80
2019-01-24T11:22:23.669Z,-2.90
2019-01-24T11:23:30.653Z,-3.00
2019-01-24T11:24:37.775Z,-3.00
2019-01-24T11:25:44.445Z,-3.00
2019-01-24T11:26:51.473Z,-2.90
2019-01-24T11:27:58.151Z,-2.80
2019-01-24T11:29:05.002Z,-2.90
2019-01-24T11:30:16.311Z,-2.80
2019-01-24T11:31:23.061Z,-2.90
2019-01-24T11:32:30.016Z,-2.90
2019-01-24T11:33:36.720Z,-2.80
2019-01-24T11:34:43.409Z,-2.70
2019-01-24T11:35:50.487Z,-2.70
2019-01-24T11:36:57.837Z,-2.60
2019-01-24T11:38:05.269Z,-2.60
2019-01-24T11:39:11.969Z,-2.50
2019-01-24T11:40:19.489Z,-2.40
2019-01-24T11:41:26.193Z,-2.40
2019-01-24T11:42:32.943Z,-2.40
2019-01-24T11:43:40.094Z,-2.40
2019-01-24T11:44:47.314Z,-2.30
2019-01-24T11:45:54.727Z,-2.20
2019-01-24T11:47:01.957Z,-2.20
2019-01-24T11:48:09.139Z,-2.20
2019-01-24T11:49:16.214Z,-2.20
2019-01-24T11:50:23.322Z,-2.30
2019-01-24T11:51:30.714Z,-2.30
2019-01-24T11:52:37.524Z,-2.30
2019-01-24T11:53:44.968Z,-2.30
2019-01-24T11:54:51.672Z,-2.30
2019-01-24T11:55:58.386Z,-2.30
2019-01-24T11:57:05.487Z,-2.20
2019-01-24T11:58:12.239Z,-2.20
2019-01-24T11:59:19.197Z,-2.10
2019-01-24T12:00:37.435Z,-2.10
2019-01-24T12:01:44.174Z,-2.20
2019-01-24T12:02:51.597Z,-2.30
2019-01-24T12:03:58.346Z,-2.50
2019-01-24T12:05:06.105Z,-2.60
2019-01-24T12:06:13.450Z,-2.60
2019-01-24T12:07:20.126Z,-2.70
2019-01-24T12:08:26.975Z,-2.70
2019-01-24T12:09:34.264Z,-2.60
2019-01-24T12:10:40.987Z,-2.60
2019-01-24T12:11:47.725Z,-2.60
2019-01-24T12:12:54.502Z,-2.70
2019-01-24T12:14:01.338Z,-2.80
2019-01-24T12:15:11.169Z,-2.90
2019-01-24T12:16:17.953Z,-2.90
2019-01-24T12:17:24.829Z,-2.90
2019-01-24T12:18:31.879Z,-2.90
2019-01-24T12:19:38.767Z,-2.80
2019-01-24T12:20:45.511Z,-2.90
2019-01-24T12:21:52.291Z,-2.90
2019-01-24T12:22:59.090Z,-2.80
2019-01-24T12:24:05.802Z,-2.70
2019-01-24T12:25:12.951Z,-2.70
2019-01-24T12:26:19.925Z,-2.70
2019-01-24T12:27:26.630Z,-2.70
2019-01-24T12:28:33.284Z,-2.70
2019-01-24T12:29:40.005Z,-2.70
2019-01-24T12:30:46.709Z,-2.70
2019-01-24T12:31:53.780Z,-2.90
2019-01-24T12:33:00.986Z,-2.90
2019-01-24T12:34:07.666Z,-2.90
2019-01-24T12:35:14.535Z,-2.90
2019-01-24T12:36:21.252Z,-2.80
2019-01-24T12:37:28.342Z,-2.80
2019-01-24T12:38:35.287Z,-2.90
2019-01-24T12:39:42.174Z,-2.80
2019-01-24T12:40:49.179Z,-2.70
2019-01-24T12:41:55.919Z,-2.70
2019-01-24T12:43:02.598Z,-2.70
2019-01-24T12:44:09.312Z,-2.80
2019-01-24T12:45:25.707Z,-2.90
2019-01-24T12:46:32.759Z,-3.00
2019-01-24T12:47:39.544Z,-3.10
2019-01-24T12:48:47.228Z,-3.10
2019-01-24T12:49:54.103Z,-3.10
2019-01-24T12:51:00.858Z,-3.20
2019-01-24T12:52:07.545Z,-3.10
2019-01-24T12:53:14.990Z,-3.10
2019-01-24T12:54:21.665Z,-3.10
2019-01-24T12:55:28.503Z,-3.00
2019-01-24T12:56:35.544Z,-3.00
2019-01-24T12:57:42.277Z,-3.00
2019-01-24T12:58:48.972Z,-3.00
2019-01-24T12:59:56.059Z,-3.10
2019-01-24T13:01:02.885Z,-3.10
2019-01-24T13:02:10.226Z,-3.20
2019-01-24T13:03:17.122Z,-3.20
2019-01-24T13:04:24.278Z,-3.20
2019-01-24T13:05:31.104Z,-3.20
2019-01-24T13:06:37.782Z,-3.30
2019-01-24T13:07:44.857Z,-3.40
2019-01-24T13:08:51.564Z,-3.40
2019-01-24T13:09:58.531Z,-3.30
2019-01-24T13:11:05.667Z,-3.20
2019-01-24T13:12:12.734Z,-3.20
2019-01-24T13:13:19.435Z,-3.20
2019-01-24T13:14:26.215Z,-3.20
2019-01-24T13:15:36.151Z,-3.30
2019-01-24T13:16:43.300Z,-3.40
2019-01-24T13:17:50.352Z,-3.40
2019-01-24T13:18:57.438Z,-3.40
2019-01-24T13:20:05.029Z,-3.50
2019-01-24T13:21:12.133Z,-3.50
2019-01-24T13:22:18.921Z,-3.50
2019-01-24T13:23:25.612Z,-3.50
2019-01-24T13:24:32.346Z,-3.60
2019-01-24T13:25:39.906Z,-3.60
2019-01-24T13:26:47.266Z,-3.60
2019-01-24T13:27:54.344Z,-3.60
2019-01-24T13:29:01.084Z,-3.60
2019-01-24T13:30:13.453Z,-3.60
2019-01-24T13:31:20.107Z,-3.60
2019-01-24T13:32:26.827Z,-3.60
2019-01-24T13:33:34.140Z,-3.60
2019-01-24T13:34:41.216Z,-3.50
2019-01-24T13:35:47.927Z,-3.50
2019-01-24T13:36:54.960Z,-3.50
2019-01-24T13:38:01.725Z,-3.40
2019-01-24T13:39:12.231Z,-3.30
2019-01-24T13:40:21.957Z,-3.30
2019-01-24T13:41:28.691Z,-3.30
2019-01-24T13:42:35.404Z,-3.40
2019-01-24T13:43:42.247Z,-3.40
2019-01-24T13:44:48.949Z,-3.50
2019-01-24T13:45:55.854Z,-3.50
2019-01-24T13:47:22.335Z,-3.50
2019-01-24T13:48:29.013Z,-3.50
2019-01-24T13:49:35.687Z,-3.50
2019-01-24T13:50:43.208Z,-3.50
2019-01-24T13:51:50.262Z,-3.50
2019-01-24T13:52:57.338Z,-3.60
2019-01-24T13:54:04.742Z,-3.60
2019-01-24T13:55:11.670Z,-3.60
2019-01-24T13:56:18.329Z,-3.60
2019-01-24T13:57:25.496Z,-3.50
2019-01-24T13:58:32.605Z,-3.50
2019-01-24T13:59:39.333Z,-3.50
2019-01-24T14:00:46.065Z,-3.50
2019-01-24T14:01:52.776Z,-3.60
2019-01-24T14:03:08.039Z,-3.60
2019-01-24T14:04:36.375Z,-3.60
2019-01-24T14:05:43.358Z,-3.60
2019-01-24T14:06:50.366Z,-3.70
2019-01-24T14:07:57.413Z,-3.70
2019-01-24T14:09:05.564Z,-3.80
2019-01-24T14:10:14.833Z,-3.80
2019-01-24T14:11:21.633Z,-3.80
2019-01-24T14:12:28.577Z,-3.70
2019-01-24T14:13:35.253Z,-3.60
2019-01-24T14:14:42.384Z,-3.60
2019-01-24T14:15:49.545Z,-3.60
2019-01-24T14:16:56.305Z,-3.60
2019-01-24T14:18:03.006Z,-3.60
2019-01-24T14:19:10.023Z,-3.70
2019-01-24T14:20:18.860Z,-3.70
2019-01-24T14:21:25.993Z,-3.70
2019-01-24T14:22:33.096Z,-3.60
2019-01-24T14:23:40.180Z,-3.50
2019-01-24T14:24:47.299Z,-3.40
2019-01-24T14:25:54.524Z,-3.40